sensor_id;sensor_type;location;lat;lon;timestamp;P1;durP1;ratioP1;P2;durP2;ratioP2
1062;SDS011;520;50.932;6.962;2023-02-27T00:00:05;2.63;;;2.33;;
1062;SDS011;520;50.932;6.962;2023-02-27T00:02:41;3.17;;;2.17;;
1062;SDS011;520;50.932;6.962;2023-02-27T00:05:09;2.23;;;2.00;;
1062;SDS011;520;50.932;6.962;2023-02-27T00:07:38;4.27;;;2.50;;
1062;SDS011;520;50.932;6.962;2023-02-27T00:13:31;2.53;;;2.10;;
1062;SDS011;520;50.932;6.962;2023-02-27T00:19:25;3.20;;;2.30;;
1062;SDS011;520;50.932;6.962;2023-02-27T00:22:15;2.57;;;2.10;;
1062;SDS011;520;50.932;6.962;2023-02-27T00:25:37;2.23;;;2.00;;
1062;SDS011;520;50.932;6.962;2023-02-27T00:37:06;2.73;;;1.97;;
1062;SDS011;520;50.932;6.962;2023-02-27T01:14:44;3.53;;;2.03;;
1062;SDS011;520;50.932;6.962;2023-02-27T01:22:10;6.33;;;1.70;;
1062;SDS011;520;50.932;6.962;2023-02-27T01:29:15;1.97;;;1.83;;
1062;SDS011;520;50.932;6.962;2023-02-27T01:45:00;3.93;;;2.20;;
1062;SDS011;520;50.932;6.962;2023-02-27T01:47:50;2.30;;;1.80;;
1062;SDS011;520;50.932;6.962;2023-02-27T01:50:24;2.10;;;2.00;;
1062;SDS011;520;50.932;6.962;2023-02-27T01:52:55;2.67;;;2.27;;
1062;SDS011;520;50.932;6.962;2023-02-27T01:55:28;2.10;;;1.70;;
1062;SDS011;520;50.932;6.962;2023-02-27T01:57:58;2.73;;;2.00;;
1062;SDS011;520;50.932;6.962;2023-02-27T02:00:26;2.60;;;1.80;;
1062;SDS011;520;50.932;6.962;2023-02-27T02:02:57;4.00;;;1.93;;
1062;SDS011;520;50.932;6.962;2023-02-27T02:05:41;2.00;;;1.83;;
1062;SDS011;520;50.932;6.962;2023-02-27T02:08:14;3.93;;;2.43;;
1062;SDS011;520;50.932;6.962;2023-02-27T02:10:44;3.00;;;1.80;;
1062;SDS011;520;50.932;6.962;2023-02-27T02:13:12;2.50;;;1.90;;
1062;SDS011;520;50.932;6.962;2023-02-27T02:15:45;2.63;;;2.20;;
1062;SDS011;520;50.932;6.962;2023-02-27T02:24:19;3.30;;;2.00;;
1062;SDS011;520;50.932;6.962;2023-02-27T02:30:27;2.60;;;2.40;;
1062;SDS011;520;50.932;6.962;2023-02-27T02:39:17;2.07;;;1.83;;
1062;SDS011;520;50.932;6.962;2023-02-27T02:50:16;2.67;;;2.30;;
1062;SDS011;520;50.932;6.962;2023-02-27T02:56:06;3.80;;;1.97;;
1062;SDS011;520;50.932;6.962;2023-02-27T02:58:44;4.37;;;1.93;;
1062;SDS011;520;50.932;6.962;2023-02-27T03:01:21;2.47;;;2.20;;
1062;SDS011;520;50.932;6.962;2023-02-27T03:06:45;2.30;;;1.60;;
1062;SDS011;520;50.932;6.962;2023-02-27T03:09:29;2.20;;;2.00;;
1062;SDS011;520;50.932;6.962;2023-02-27T03:12:02;2.70;;;1.80;;
1062;SDS011;520;50.932;6.962;2023-02-27T03:14:40;3.80;;;1.97;;
1062;SDS011;520;50.932;6.962;2023-02-27T03:20:23;3.10;;;1.80;;
1062;SDS011;520;50.932;6.962;2023-02-27T03:22:55;3.53;;;2.17;;
1062;SDS011;520;50.932;6.962;2023-02-27T03:25:25;2.83;;;1.87;;
1062;SDS011;520;50.932;6.962;2023-02-27T03:27:59;5.10;;;2.03;;
1062;SDS011;520;50.932;6.962;2023-02-27T03:36:42;5.57;;;2.10;;
1062;SDS011;520;50.932;6.962;2023-02-27T03:42:58;2.37;;;2.17;;
1062;SDS011;520;50.932;6.962;2023-02-27T03:48:07;2.60;;;1.80;;
1062;SDS011;520;50.932;6.962;2023-02-27T03:50:39;2.63;;;2.20;;
1062;SDS011;520;50.932;6.962;2023-02-27T03:53:10;1.83;;;1.73;;
1062;SDS011;520;50.932;6.962;2023-02-27T03:56:14;6.20;;;2.00;;
1062;SDS011;520;50.932;6.962;2023-02-27T04:03:00;2.20;;;1.83;;
1062;SDS011;520;50.932;6.962;2023-02-27T04:05:37;2.23;;;2.03;;
1062;SDS011;520;50.932;6.962;2023-02-27T04:09:08;3.93;;;1.90;;
1062;SDS011;520;50.932;6.962;2023-02-27T04:28:18;3.23;;;2.77;;
1062;SDS011;520;50.932;6.962;2023-02-27T04:40:41;2.90;;;2.40;;
1062;SDS011;520;50.932;6.962;2023-02-27T04:43:45;2.30;;;2.10;;
1062;SDS011;520;50.932;6.962;2023-02-27T04:46:14;13.73;;;2.57;;
1062;SDS011;520;50.932;6.962;2023-02-27T04:48:49;3.17;;;2.80;;
1062;SDS011;520;50.932;6.962;2023-02-27T04:51:34;2.27;;;2.00;;
1062;SDS011;520;50.932;6.962;2023-02-27T04:54:09;3.90;;;2.07;;
1062;SDS011;520;50.932;6.962;2023-02-27T04:56:41;2.30;;;2.10;;
1062;SDS011;520;50.932;6.962;2023-02-27T04:59:26;2.90;;;2.30;;
1062;SDS011;520;50.932;6.962;2023-02-27T05:04:40;2.67;;;2.40;;
1062;SDS011;520;50.932;6.962;2023-02-27T05:07:16;2.93;;;2.17;;
1062;SDS011;520;50.932;6.962;2023-02-27T05:09:57;4.27;;;2.70;;
1062;SDS011;520;50.932;6.962;2023-02-27T05:13:05;3.47;;;2.60;;
1062;SDS011;520;50.932;6.962;2023-02-27T05:19:21;4.00;;;2.67;;
1062;SDS011;520;50.932;6.962;2023-02-27T05:22:08;2.57;;;2.37;;
1062;SDS011;520;50.932;6.962;2023-02-27T05:25:13;2.43;;;2.20;;
1062;SDS011;520;50.932;6.962;2023-02-27T05:28:06;4.87;;;2.40;;
1062;SDS011;520;50.932;6.962;2023-02-27T05:31:09;3.00;;;2.47;;
1062;SDS011;520;50.932;6.962;2023-02-27T05:33:48;2.13;;;2.03;;
1062;SDS011;520;50.932;6.962;2023-02-27T05:36:33;8.37;;;2.73;;
1062;SDS011;520;50.932;6.962;2023-02-27T05:39:16;2.53;;;2.33;;
1062;SDS011;520;50.932;6.962;2023-02-27T05:41:55;2.73;;;2.27;;
1062;SDS011;520;50.932;6.962;2023-02-27T05:44:32;2.33;;;2.13;;
1062;SDS011;520;50.932;6.962;2023-02-27T05:53:28;3.10;;;2.30;;
1062;SDS011;520;50.932;6.962;2023-02-27T05:56:01;3.13;;;2.50;;
1062;SDS011;520;50.932;6.962;2023-02-27T05:58:41;3.10;;;2.20;;
1062;SDS011;520;50.932;6.962;2023-02-27T06:01:14;2.73;;;2.30;;
1062;SDS011;520;50.932;6.962;2023-02-27T06:03:46;5.60;;;2.73;;
1062;SDS011;520;50.932;6.962;2023-02-27T06:09:26;3.40;;;2.20;;
1062;SDS011;520;50.932;6.962;2023-02-27T06:11:54;3.90;;;2.50;;
1062;SDS011;520;50.932;6.962;2023-02-27T06:14:30;3.50;;;2.37;;
1062;SDS011;520;50.932;6.962;2023-02-27T06:17:10;6.13;;;2.33;;
1062;SDS011;520;50.932;6.962;2023-02-27T06:19:42;3.43;;;2.83;;
1062;SDS011;520;50.932;6.962;2023-02-27T06:22:11;3.40;;;2.80;;
1062;SDS011;520;50.932;6.962;2023-02-27T06:24:56;2.80;;;2.57;;
1062;SDS011;520;50.932;6.962;2023-02-27T06:27:28;3.80;;;2.47;;
1062;SDS011;520;50.932;6.962;2023-02-27T06:29:59;4.20;;;2.70;;
1062;SDS011;520;50.932;6.962;2023-02-27T06:32:25;4.70;;;2.67;;
1062;SDS011;520;50.932;6.962;2023-02-27T06:34:53;2.97;;;2.63;;
1062;SDS011;520;50.932;6.962;2023-02-27T06:37:20;3.23;;;2.27;;
1062;SDS011;520;50.932;6.962;2023-02-27T06:39:47;3.83;;;2.40;;
1062;SDS011;520;50.932;6.962;2023-02-27T06:42:14;5.10;;;2.90;;
1062;SDS011;520;50.932;6.962;2023-02-27T06:44:44;2.57;;;1.93;;
1062;SDS011;520;50.932;6.962;2023-02-27T06:47:12;2.50;;;2.17;;
1062;SDS011;520;50.932;6.962;2023-02-27T06:49:40;6.00;;;2.43;;
1062;SDS011;520;50.932;6.962;2023-02-27T06:52:24;3.13;;;2.83;;
1062;SDS011;520;50.932;6.962;2023-02-27T06:55:42;2.60;;;2.30;;
1062;SDS011;520;50.932;6.962;2023-02-27T08:22:45;5.60;;;2.20;;
1062;SDS011;520;50.932;6.962;2023-02-27T08:26:04;2.40;;;1.90;;
1062;SDS011;520;50.932;6.962;2023-02-27T08:29:37;7.73;;;2.00;;
1062;SDS011;520;50.932;6.962;2023-02-27T09:17:47;4.43;;;1.63;;
1062;SDS011;520;50.932;6.962;2023-02-27T09:20:32;1.90;;;1.60;;
1062;SDS011;520;50.932;6.962;2023-02-27T09:26:05;3.60;;;2.00;;
1062;SDS011;520;50.932;6.962;2023-02-27T09:29:13;2.50;;;1.80;;
1062;SDS011;520;50.932;6.962;2023-02-27T09:32:11;1.80;;;1.63;;
1062;SDS011;520;50.932;6.962;2023-02-27T09:34:43;2.97;;;2.07;;
1062;SDS011;520;50.932;6.962;2023-02-27T09:37:37;1.90;;;1.80;;
1062;SDS011;520;50.932;6.962;2023-02-27T09:40:24;2.57;;;2.10;;
1062;SDS011;520;50.932;6.962;2023-02-27T09:43:23;2.70;;;2.27;;
1062;SDS011;520;50.932;6.962;2023-02-27T09:46:06;1.83;;;1.70;;
1062;SDS011;520;50.932;6.962;2023-02-27T09:48:50;4.87;;;2.13;;
1062;SDS011;520;50.932;6.962;2023-02-27T09:51:43;3.33;;;1.67;;
1062;SDS011;520;50.932;6.962;2023-02-27T09:54:29;2.43;;;1.67;;
1062;SDS011;520;50.932;6.962;2023-02-27T09:57:14;1.93;;;1.73;;
1062;SDS011;520;50.932;6.962;2023-02-27T10:00:02;3.47;;;1.60;;
1062;SDS011;520;50.932;6.962;2023-02-27T10:06:16;2.40;;;1.30;;
1062;SDS011;520;50.932;6.962;2023-02-27T10:15:01;3.00;;;1.80;;
1062;SDS011;520;50.932;6.962;2023-02-27T10:17:59;2.40;;;1.50;;
1062;SDS011;520;50.932;6.962;2023-02-27T10:21:04;1.80;;;1.60;;
1062;SDS011;520;50.932;6.962;2023-02-27T10:23:54;1.40;;;1.30;;
1062;SDS011;520;50.932;6.962;2023-02-27T10:26:47;2.80;;;2.40;;
1062;SDS011;520;50.932;6.962;2023-02-27T10:29:52;1.27;;;1.27;;
1062;SDS011;520;50.932;6.962;2023-02-27T10:33:39;1.70;;;1.10;;
1062;SDS011;520;50.932;6.962;2023-02-27T10:36:20;1.00;;;0.90;;
1062;SDS011;520;50.932;6.962;2023-02-27T10:39:17;1.17;;;0.90;;
1062;SDS011;520;50.932;6.962;2023-02-27T10:42:46;1.63;;;0.90;;
1062;SDS011;520;50.932;6.962;2023-02-27T10:46:02;3.13;;;0.60;;
1062;SDS011;520;50.932;6.962;2023-02-27T10:49:18;0.90;;;0.80;;
1062;SDS011;520;50.932;6.962;2023-02-27T10:52:29;2.20;;;0.90;;
1062;SDS011;520;50.932;6.962;2023-02-27T10:55:25;1.17;;;0.60;;
1062;SDS011;520;50.932;6.962;2023-02-27T10:58:20;1.53;;;1.17;;
1062;SDS011;520;50.932;6.962;2023-02-27T11:01:07;1.03;;;0.60;;
1062;SDS011;520;50.932;6.962;2023-02-27T11:03:42;0.53;;;0.53;;
1062;SDS011;520;50.932;6.962;2023-02-27T11:06:31;1.43;;;0.83;;
1062;SDS011;520;50.932;6.962;2023-02-27T11:12:22;0.93;;;0.93;;
1062;SDS011;520;50.932;6.962;2023-02-27T11:17:51;1.73;;;0.60;;
1062;SDS011;520;50.932;6.962;2023-02-27T11:20:37;2.20;;;0.73;;
1062;SDS011;520;50.932;6.962;2023-02-27T11:26:08;2.33;;;0.93;;
1062;SDS011;520;50.932;6.962;2023-02-27T11:29:18;1.63;;;0.70;;
1062;SDS011;520;50.932;6.962;2023-02-27T11:31:59;1.90;;;0.90;;
1062;SDS011;520;50.932;6.962;2023-02-27T11:34:47;3.67;;;2.40;;
1062;SDS011;520;50.932;6.962;2023-02-27T11:37:26;1.00;;;0.70;;
1062;SDS011;520;50.932;6.962;2023-02-27T11:45:55;1.63;;;0.70;;
1062;SDS011;520;50.932;6.962;2023-02-27T11:51:51;1.00;;;0.90;;
1062;SDS011;520;50.932;6.962;2023-02-27T12:00:24;1.60;;;0.77;;
1062;SDS011;520;50.932;6.962;2023-02-27T12:03:05;1.70;;;1.47;;
1062;SDS011;520;50.932;6.962;2023-02-27T12:06:16;1.33;;;1.00;;
1062;SDS011;520;50.932;6.962;2023-02-27T12:09:12;1.00;;;0.80;;
1062;SDS011;520;50.932;6.962;2023-02-27T12:12:13;0.97;;;0.77;;
1062;SDS011;520;50.932;6.962;2023-02-27T12:20:08;1.47;;;1.10;;
1062;SDS011;520;50.932;6.962;2023-02-27T12:22:49;0.80;;;0.80;;
1062;SDS011;520;50.932;6.962;2023-02-27T12:28:05;0.73;;;0.73;;
1062;SDS011;520;50.932;6.962;2023-02-27T12:31:06;2.80;;;1.43;;
1062;SDS011;520;50.932;6.962;2023-02-27T12:34:01;1.97;;;1.20;;
1062;SDS011;520;50.932;6.962;2023-02-27T12:36:42;3.97;;;1.73;;
1062;SDS011;520;50.932;6.962;2023-02-27T12:39:19;1.27;;;0.97;;
1062;SDS011;520;50.932;6.962;2023-02-27T12:44:53;5.23;;;1.50;;
1062;SDS011;520;50.932;6.962;2023-02-27T12:50:17;1.20;;;1.10;;
1062;SDS011;520;50.932;6.962;2023-02-27T12:55:53;1.93;;;1.00;;
1062;SDS011;520;50.932;6.962;2023-02-27T13:14:49;2.60;;;1.10;;
1062;SDS011;520;50.932;6.962;2023-02-27T13:21:09;0.70;;;0.70;;
1062;SDS011;520;50.932;6.962;2023-02-27T13:24:18;1.57;;;0.80;;
1062;SDS011;520;50.932;6.962;2023-02-27T13:35:11;2.80;;;1.87;;
1062;SDS011;520;50.932;6.962;2023-02-27T13:44:38;1.57;;;0.73;;
1062;SDS011;520;50.932;6.962;2023-02-27T13:48:36;1.00;;;0.80;;
1062;SDS011;520;50.932;6.962;2023-02-27T13:54:43;3.30;;;1.17;;
1062;SDS011;520;50.932;6.962;2023-02-27T13:57:41;1.13;;;1.10;;
1062;SDS011;520;50.932;6.962;2023-02-27T14:00:54;1.40;;;1.30;;
1062;SDS011;520;50.932;6.962;2023-02-27T14:10:39;1.00;;;0.83;;
1062;SDS011;520;50.932;6.962;2023-02-27T14:22:41;2.93;;;1.10;;
1062;SDS011;520;50.932;6.962;2023-02-27T14:25:55;1.00;;;0.90;;
1062;SDS011;520;50.932;6.962;2023-02-27T14:31:39;2.03;;;0.90;;
1062;SDS011;520;50.932;6.962;2023-02-27T14:34:16;2.37;;;0.90;;
1062;SDS011;520;50.932;6.962;2023-02-27T14:36:49;1.10;;;1.00;;
1062;SDS011;520;50.932;6.962;2023-02-27T14:45:12;1.90;;;0.97;;
1062;SDS011;520;50.932;6.962;2023-02-27T14:47:45;0.70;;;0.70;;
1062;SDS011;520;50.932;6.962;2023-02-27T14:53:22;1.87;;;0.97;;
1062;SDS011;520;50.932;6.962;2023-02-27T14:56:27;1.30;;;0.83;;
1062;SDS011;520;50.932;6.962;2023-02-27T15:05:13;1.43;;;0.90;;
1062;SDS011;520;50.932;6.962;2023-02-27T15:08:20;2.60;;;0.90;;
1062;SDS011;520;50.932;6.962;2023-02-27T15:11:02;2.27;;;1.20;;
1062;SDS011;520;50.932;6.962;2023-02-27T15:13:54;3.37;;;1.67;;
1062;SDS011;520;50.932;6.962;2023-02-27T15:16:37;1.33;;;1.00;;
1062;SDS011;520;50.932;6.962;2023-02-27T15:22:20;1.27;;;1.17;;
1062;SDS011;520;50.932;6.962;2023-02-27T15:25:25;0.90;;;0.80;;
1062;SDS011;520;50.932;6.962;2023-02-27T15:28:11;1.03;;;1.03;;
1062;SDS011;520;50.932;6.962;2023-02-27T15:31:21;1.97;;;1.27;;
1062;SDS011;520;50.932;6.962;2023-02-27T15:33:55;2.57;;;1.30;;
1062;SDS011;520;50.932;6.962;2023-02-27T15:36:35;2.50;;;1.60;;
1062;SDS011;520;50.932;6.962;2023-02-27T15:39:23;2.07;;;1.50;;
1062;SDS011;520;50.932;6.962;2023-02-27T15:42:04;2.47;;;1.30;;
1062;SDS011;520;50.932;6.962;2023-02-27T15:44:46;1.90;;;1.07;;
1062;SDS011;520;50.932;6.962;2023-02-27T15:47:53;1.40;;;0.90;;
1062;SDS011;520;50.932;6.962;2023-02-27T15:50:34;1.13;;;1.03;;
1062;SDS011;520;50.932;6.962;2023-02-27T15:53:30;2.57;;;1.20;;
1062;SDS011;520;50.932;6.962;2023-02-27T15:56:30;3.37;;;1.20;;
1062;SDS011;520;50.932;6.962;2023-02-27T15:59:14;1.60;;;1.27;;
1062;SDS011;520;50.932;6.962;2023-02-27T16:01:47;1.10;;;1.00;;
1062;SDS011;520;50.932;6.962;2023-02-27T16:04:23;2.10;;;0.90;;
1062;SDS011;520;50.932;6.962;2023-02-27T16:07:03;1.33;;;1.00;;
1062;SDS011;520;50.932;6.962;2023-02-27T16:10:04;2.40;;;0.97;;
1062;SDS011;520;50.932;6.962;2023-02-27T16:12:46;1.07;;;0.97;;
1062;SDS011;520;50.932;6.962;2023-02-27T16:15:37;1.50;;;0.80;;
1062;SDS011;520;50.932;6.962;2023-02-27T16:21:19;2.17;;;1.17;;
1062;SDS011;520;50.932;6.962;2023-02-27T16:24:16;4.40;;;1.33;;
1062;SDS011;520;50.932;6.962;2023-02-27T16:26:53;1.63;;;1.20;;
1062;SDS011;520;50.932;6.962;2023-02-27T16:29:45;2.47;;;1.70;;
1062;SDS011;520;50.932;6.962;2023-02-27T16:35:22;1.43;;;1.00;;
1062;SDS011;520;50.932;6.962;2023-02-27T16:38:04;1.67;;;1.30;;
1062;SDS011;520;50.932;6.962;2023-02-27T16:40:50;1.17;;;1.07;;
1062;SDS011;520;50.932;6.962;2023-02-27T16:49:24;1.93;;;1.30;;
1062;SDS011;520;50.932;6.962;2023-02-27T16:52:08;2.13;;;1.43;;
1062;SDS011;520;50.932;6.962;2023-02-27T16:57:33;3.67;;;1.30;;
1062;SDS011;520;50.932;6.962;2023-02-27T17:00:19;3.13;;;1.43;;
1062;SDS011;520;50.932;6.962;2023-02-27T17:03:06;2.97;;;1.30;;
1062;SDS011;520;50.932;6.962;2023-02-27T17:05:44;2.50;;;1.63;;
1062;SDS011;520;50.932;6.962;2023-02-27T17:08:24;1.53;;;1.20;;
1062;SDS011;520;50.932;6.962;2023-02-27T17:11:03;2.20;;;1.40;;
1062;SDS011;520;50.932;6.962;2023-02-27T17:13:42;2.33;;;1.67;;
1062;SDS011;520;50.932;6.962;2023-02-27T17:16:20;2.47;;;1.63;;
1062;SDS011;520;50.932;6.962;2023-02-27T17:18:54;3.53;;;1.37;;
1062;SDS011;520;50.932;6.962;2023-02-27T17:21:23;2.40;;;1.67;;
1062;SDS011;520;50.932;6.962;2023-02-27T17:24:04;5.23;;;3.40;;
1062;SDS011;520;50.932;6.962;2023-02-27T17:26:43;2.13;;;1.80;;
1062;SDS011;520;50.932;6.962;2023-02-27T17:29:22;1.60;;;1.50;;
1062;SDS011;520;50.932;6.962;2023-02-27T17:32:04;4.67;;;3.63;;
1062;SDS011;520;50.932;6.962;2023-02-27T17:35:05;3.10;;;2.77;;
1062;SDS011;520;50.932;6.962;2023-02-27T17:38:05;2.40;;;2.20;;
1062;SDS011;520;50.932;6.962;2023-02-27T17:41:11;2.43;;;1.90;;
1062;SDS011;520;50.932;6.962;2023-02-27T17:43:59;3.13;;;1.60;;
1062;SDS011;520;50.932;6.962;2023-02-27T17:46:38;2.73;;;1.97;;
1062;SDS011;520;50.932;6.962;2023-02-27T17:49:33;2.07;;;1.80;;
1062;SDS011;520;50.932;6.962;2023-02-27T17:52:25;3.80;;;2.13;;
1062;SDS011;520;50.932;6.962;2023-02-27T17:58:21;3.53;;;1.67;;
1062;SDS011;520;50.932;6.962;2023-02-27T18:01:34;2.30;;;1.40;;
1062;SDS011;520;50.932;6.962;2023-02-27T18:04:53;3.30;;;2.03;;
1062;SDS011;520;50.932;6.962;2023-02-27T18:07:32;3.63;;;1.60;;
1062;SDS011;520;50.932;6.962;2023-02-27T18:10:48;3.13;;;2.17;;
1062;SDS011;520;50.932;6.962;2023-02-27T18:13:35;3.03;;;2.03;;
1062;SDS011;520;50.932;6.962;2023-02-27T18:16:28;4.00;;;2.43;;
1062;SDS011;520;50.932;6.962;2023-02-27T18:24:25;3.50;;;2.57;;
1062;SDS011;520;50.932;6.962;2023-02-27T18:27:22;2.47;;;2.27;;
1062;SDS011;520;50.932;6.962;2023-02-27T18:30:13;8.43;;;5.00;;
1062;SDS011;520;50.932;6.962;2023-02-27T18:32:55;2.83;;;2.53;;
1062;SDS011;520;50.932;6.962;2023-02-27T18:36:01;2.77;;;2.20;;
1062;SDS011;520;50.932;6.962;2023-02-27T18:39:10;4.30;;;2.47;;
1062;SDS011;520;50.932;6.962;2023-02-27T18:42:04;4.73;;;2.30;;
1062;SDS011;520;50.932;6.962;2023-02-27T18:45:13;3.90;;;2.13;;
1062;SDS011;520;50.932;6.962;2023-02-27T18:48:13;2.90;;;2.03;;
1062;SDS011;520;50.932;6.962;2023-02-27T18:51:08;3.10;;;2.57;;
1062;SDS011;520;50.932;6.962;2023-02-27T18:53:50;3.40;;;2.40;;
1062;SDS011;520;50.932;6.962;2023-02-27T18:56:45;3.00;;;2.57;;
1062;SDS011;520;50.932;6.962;2023-02-27T18:59:54;4.23;;;2.60;;
1062;SDS011;520;50.932;6.962;2023-02-27T19:02:57;2.13;;;1.97;;
1062;SDS011;520;50.932;6.962;2023-02-27T19:05:50;3.27;;;2.47;;
1062;SDS011;520;50.932;6.962;2023-02-27T19:09:20;4.60;;;2.70;;
1062;SDS011;520;50.932;6.962;2023-02-27T19:12:13;3.57;;;2.33;;
1062;SDS011;520;50.932;6.962;2023-02-27T19:14:50;3.07;;;2.03;;
1062;SDS011;520;50.932;6.962;2023-02-27T19:17:33;3.17;;;2.27;;
1062;SDS011;520;50.932;6.962;2023-02-27T19:20:10;2.80;;;2.60;;
1062;SDS011;520;50.932;6.962;2023-02-27T19:23:01;3.07;;;2.50;;
1062;SDS011;520;50.932;6.962;2023-02-27T19:28:22;2.60;;;2.37;;
1062;SDS011;520;50.932;6.962;2023-02-27T19:31:11;6.10;;;2.37;;
1062;SDS011;520;50.932;6.962;2023-02-27T19:34:13;4.67;;;2.73;;
1062;SDS011;520;50.932;6.962;2023-02-27T19:37:10;7.90;;;2.60;;
1062;SDS011;520;50.932;6.962;2023-02-27T19:43:00;5.20;;;2.57;;
1062;SDS011;520;50.932;6.962;2023-02-27T19:48:35;4.50;;;3.00;;
1062;SDS011;520;50.932;6.962;2023-02-27T19:51:27;2.90;;;2.57;;
1062;SDS011;520;50.932;6.962;2023-02-27T19:57:43;3.07;;;2.60;;
1062;SDS011;520;50.932;6.962;2023-02-27T20:01:00;5.90;;;3.90;;
1062;SDS011;520;50.932;6.962;2023-02-27T20:07:12;3.37;;;2.73;;
1062;SDS011;520;50.932;6.962;2023-02-27T20:10:13;3.53;;;2.53;;
1062;SDS011;520;50.932;6.962;2023-02-27T20:13:10;5.13;;;3.17;;
1062;SDS011;520;50.932;6.962;2023-02-27T20:15:56;4.47;;;3.70;;
1062;SDS011;520;50.932;6.962;2023-02-27T20:18:54;3.53;;;3.23;;
1062;SDS011;520;50.932;6.962;2023-02-27T20:22:11;3.47;;;3.17;;
1062;SDS011;520;50.932;6.962;2023-02-27T20:25:07;4.60;;;3.10;;
1062;SDS011;520;50.932;6.962;2023-02-27T20:28:07;3.67;;;3.37;;
1062;SDS011;520;50.932;6.962;2023-02-27T20:31:00;5.60;;;3.87;;
1062;SDS011;520;50.932;6.962;2023-02-27T20:33:52;4.57;;;4.03;;
1062;SDS011;520;50.932;6.962;2023-02-27T20:36:27;7.30;;;4.13;;
1062;SDS011;520;50.932;6.962;2023-02-27T20:39:29;4.10;;;3.63;;
1062;SDS011;520;50.932;6.962;2023-02-27T20:42:11;5.33;;;4.17;;
1062;SDS011;520;50.932;6.962;2023-02-27T20:45:08;6.17;;;4.37;;
1062;SDS011;520;50.932;6.962;2023-02-27T20:47:50;4.80;;;3.83;;
1062;SDS011;520;50.932;6.962;2023-02-27T20:50:49;6.37;;;4.00;;
1062;SDS011;520;50.932;6.962;2023-02-27T20:53:26;5.10;;;3.87;;
1062;SDS011;520;50.932;6.962;2023-02-27T20:55:53;4.77;;;3.70;;
1062;SDS011;520;50.932;6.962;2023-02-27T20:58:37;5.17;;;3.43;;
1062;SDS011;520;50.932;6.962;2023-02-27T21:01:19;5.70;;;4.17;;
1062;SDS011;520;50.932;6.962;2023-02-27T21:03:50;4.37;;;3.57;;
1062;SDS011;520;50.932;6.962;2023-02-27T21:06:21;3.97;;;2.90;;
1062;SDS011;520;50.932;6.962;2023-02-27T21:09:03;10.97;;;4.43;;
1062;SDS011;520;50.932;6.962;2023-02-27T21:11:46;3.33;;;3.00;;
1062;SDS011;520;50.932;6.962;2023-02-27T21:14:28;3.23;;;2.93;;
1062;SDS011;520;50.932;6.962;2023-02-27T21:16:55;3.57;;;2.73;;
1062;SDS011;520;50.932;6.962;2023-02-27T21:19:36;4.20;;;3.40;;
1062;SDS011;520;50.932;6.962;2023-02-27T21:22:22;4.43;;;3.40;;
1062;SDS011;520;50.932;6.962;2023-02-27T21:25:23;2.50;;;2.30;;
1062;SDS011;520;50.932;6.962;2023-02-27T21:28:17;2.67;;;2.47;;
1062;SDS011;520;50.932;6.962;2023-02-27T21:31:10;5.97;;;3.20;;
1062;SDS011;520;50.932;6.962;2023-02-27T21:33:49;4.90;;;3.13;;
1062;SDS011;520;50.932;6.962;2023-02-27T21:36:44;5.20;;;2.57;;
1062;SDS011;520;50.932;6.962;2023-02-27T21:39:25;2.60;;;2.40;;
1062;SDS011;520;50.932;6.962;2023-02-27T21:42:12;3.10;;;2.80;;
1062;SDS011;520;50.932;6.962;2023-02-27T21:45:29;3.50;;;2.37;;
1062;SDS011;520;50.932;6.962;2023-02-27T21:48:18;3.80;;;2.80;;
1062;SDS011;520;50.932;6.962;2023-02-27T21:51:12;6.50;;;2.83;;
1062;SDS011;520;50.932;6.962;2023-02-27T21:54:04;2.60;;;2.40;;
1062;SDS011;520;50.932;6.962;2023-02-27T21:56:54;3.10;;;2.80;;
1062;SDS011;520;50.932;6.962;2023-02-27T21:59:54;2.87;;;2.57;;
1062;SDS011;520;50.932;6.962;2023-02-27T22:02:41;4.03;;;2.57;;
1062;SDS011;520;50.932;6.962;2023-02-27T22:05:32;2.90;;;2.30;;
1062;SDS011;520;50.932;6.962;2023-02-27T22:08:29;3.37;;;2.70;;
1062;SDS011;520;50.932;6.962;2023-02-27T22:11:30;3.90;;;2.77;;
1062;SDS011;520;50.932;6.962;2023-02-27T22:17:38;5.40;;;2.13;;
1062;SDS011;520;50.932;6.962;2023-02-27T22:20:33;2.77;;;2.20;;
1062;SDS011;520;50.932;6.962;2023-02-27T22:23:26;3.00;;;2.30;;
1062;SDS011;520;50.932;6.962;2023-02-27T22:26:23;2.70;;;2.03;;
1062;SDS011;520;50.932;6.962;2023-02-27T22:28:57;2.20;;;2.00;;
1062;SDS011;520;50.932;6.962;2023-02-27T22:31:46;3.93;;;2.80;;
1062;SDS011;520;50.932;6.962;2023-02-27T22:34:46;2.30;;;2.10;;
1062;SDS011;520;50.932;6.962;2023-02-27T22:37:31;2.50;;;2.30;;
1062;SDS011;520;50.932;6.962;2023-02-27T22:40:15;4.50;;;2.30;;
1062;SDS011;520;50.932;6.962;2023-02-27T22:43:20;4.00;;;2.40;;
1062;SDS011;520;50.932;6.962;2023-02-27T22:45:53;5.50;;;2.53;;
1062;SDS011;520;50.932;6.962;2023-02-27T22:48:35;5.10;;;2.87;;
1062;SDS011;520;50.932;6.962;2023-02-27T22:51:15;3.07;;;2.73;;
1062;SDS011;520;50.932;6.962;2023-02-27T22:56:52;2.80;;;2.50;;
1062;SDS011;520;50.932;6.962;2023-02-27T22:59:25;5.57;;;2.00;;
1062;SDS011;520;50.932;6.962;2023-02-27T23:02:20;2.67;;;1.97;;
1062;SDS011;520;50.932;6.962;2023-02-27T23:05:16;3.00;;;2.03;;
1062;SDS011;520;50.932;6.962;2023-02-27T23:08:10;3.80;;;2.30;;
1062;SDS011;520;50.932;6.962;2023-02-27T23:10:38;1.90;;;1.80;;
1062;SDS011;520;50.932;6.962;2023-02-27T23:13:06;3.83;;;1.90;;
1062;SDS011;520;50.932;6.962;2023-02-27T23:15:56;3.63;;;2.73;;
1062;SDS011;520;50.932;6.962;2023-02-27T23:18:35;2.77;;;2.57;;
1062;SDS011;520;50.932;6.962;2023-02-27T23:21:30;3.97;;;2.37;;
1062;SDS011;520;50.932;6.962;2023-02-27T23:24:19;5.00;;;2.93;;
1062;SDS011;520;50.932;6.962;2023-02-27T23:26:56;2.90;;;2.40;;
1062;SDS011;520;50.932;6.962;2023-02-27T23:29:51;2.60;;;2.20;;
1062;SDS011;520;50.932;6.962;2023-02-27T23:32:35;2.90;;;1.90;;
1062;SDS011;520;50.932;6.962;2023-02-27T23:35:23;3.20;;;2.90;;
1062;SDS011;520;50.932;6.962;2023-02-27T23:38:03;5.50;;;2.23;;
1062;SDS011;520;50.932;6.962;2023-02-27T23:40:35;2.67;;;2.03;;
1062;SDS011;520;50.932;6.962;2023-02-27T23:43:15;3.10;;;2.50;;
1062;SDS011;520;50.932;6.962;2023-02-27T23:45:45;2.33;;;2.13;;
1062;SDS011;520;50.932;6.962;2023-02-27T23:48:34;2.60;;;2.40;;
1062;SDS011;520;50.932;6.962;2023-02-27T23:51:15;2.33;;;2.10;;
1062;SDS011;520;50.932;6.962;2023-02-27T23:53:55;2.50;;;2.13;;
1062;SDS011;520;50.932;6.962;2023-02-27T23:56:40;2.50;;;2.20;;
1062;SDS011;520;50.932;6.962;2023-02-27T23:59:40;4.63;;;2.30;;
